NCAR-RAP Real-Time Weather Data

Output produced by METARs form (08 May 2021  16:30 UTC)
found at http://weather.rap.ucar.edu/surface/
 
KMWH 081552Z 25008KT 10SM CLR 13/M04 A3024 RMK AO2 SLP242 T01281039
KMWH 081452Z 25009KT 10SM CLR 11/M04 A3024 RMK AO2 SLP241 T01061039 53012
KMWH 081352Z 25006KT 10SM CLR 08/M04 A3022 RMK AO2 SLP237 T00831039
KMWH 081252Z 24007KT 10SM CLR 07/M03 A3021 RMK AO2 SLP233 T00671033
KMWH 081152Z AUTO 22007KT 10SM CLR 07/M03 A3020 RMK AO2 SLP231 T00671033 10106 20050 53008
KMWH 081052Z AUTO 22007KT 10SM CLR 08/M03 A3019 RMK AO2 SLP223 T00781033
KMWH 080952Z AUTO 23004KT 10SM CLR 07/M02 A3018 RMK AO2 SLP222 T00721017
KMWH 080852Z AUTO 23004KT 10SM CLR 07/M03 A3018 RMK AO2 SLP221 T00671028 51013
KMWH 080752Z AUTO VRB05KT 10SM CLR 09/M04 A3016 RMK AO2 SLP214 T00891039 401890061
KMWH 080652Z AUTO 24004KT 10SM CLR 08/M03 A3015 RMK AO2 SLP213 T00831028
KMWH 080552Z AUTO 30007KT 10SM CLR 10/M05 A3014 RMK AO2 SLP205 T01001050 10178 20100 51013
KMWH 080452Z AUTO 30015KT 10SM CLR 11/M06 A3012 RMK AO2 SLP202 T01111061
KMWH 080352Z 26011KT 10SM CLR 12/M06 A3011 RMK AO2 SLP199 T01171056